createdAt,value
2019-05-28T13:47:46.211Z,33.43
2019-05-28T13:50:17.269Z,33.41
2019-05-28T13:52:48.069Z,33.37
2019-05-28T13:55:19.466Z,33.11
2019-05-28T13:57:50.015Z,33.24
2019-05-28T14:00:22.332Z,33.19
2019-05-28T14:02:52.798Z,33.27
2019-05-28T14:05:23.391Z,33.43
2019-05-28T14:07:54.103Z,33.41
2019-05-28T14:10:24.846Z,33.39
2019-05-28T14:12:55.530Z,33.31
2019-05-28T14:15:26.217Z,33.09
2019-05-28T14:17:56.734Z,33.12
2019-05-28T14:20:27.415Z,32.95
2019-05-28T14:22:57.916Z,32.89
2019-05-28T14:25:28.423Z,33.00
2019-05-28T14:27:58.943Z,32.94
2019-05-28T14:30:29.667Z,32.89
2019-05-28T14:33:00.148Z,32.84
2019-05-28T14:35:30.703Z,32.86
2019-05-28T14:38:01.201Z,32.89
2019-05-28T14:40:32.624Z,32.79
2019-05-28T14:43:03.469Z,32.92
2019-05-28T14:45:34.156Z,32.84
2019-05-28T14:48:04.833Z,32.88
2019-05-28T14:50:35.349Z,32.96
2019-05-28T14:53:05.962Z,33.02
2019-05-28T14:55:36.570Z,33.00
2019-05-28T14:58:07.191Z,32.90
2019-05-28T15:00:37.793Z,32.98
2019-05-28T15:03:08.313Z,32.99
2019-05-28T15:05:38.771Z,32.99
2019-05-28T15:08:09.243Z,32.99
2019-05-28T15:10:39.744Z,32.94
2019-05-28T15:13:10.319Z,32.71
2019-05-28T15:15:40.750Z,32.79
2019-05-28T15:18:11.210Z,32.76
2019-05-28T15:20:41.711Z,32.66
2019-05-28T15:23:12.205Z,32.53
2019-05-28T15:25:42.661Z,32.56
2019-05-28T15:28:13.209Z,32.35
2019-05-28T15:30:43.710Z,32.29
2019-05-28T15:33:14.260Z,32.12
2019-05-28T15:35:44.793Z,31.98
2019-05-28T15:38:15.348Z,32.14
2019-05-28T15:40:45.878Z,32.01
2019-05-28T15:43:16.343Z,32.02
2019-05-28T15:45:46.894Z,31.93
2019-05-28T15:48:17.357Z,31.89
2019-05-28T15:50:47.974Z,31.83
2019-05-28T15:53:18.406Z,31.97
2019-05-28T15:55:48.923Z,31.99
2019-05-28T15:58:19.392Z,31.83
2019-05-28T16:00:49.904Z,31.99
2019-05-28T16:03:20.425Z,31.98
2019-05-28T16:05:50.985Z,31.96
2019-05-28T16:08:21.485Z,31.87
2019-05-28T16:10:51.980Z,31.89
2019-05-28T16:13:22.503Z,31.71
2019-05-28T16:15:53.004Z,31.66
2019-05-28T16:18:23.453Z,31.58
2019-05-28T16:20:53.972Z,31.50
2019-05-28T16:23:24.435Z,31.47
2019-05-28T16:25:54.974Z,31.23
2019-05-28T16:28:25.448Z,31.24
2019-05-28T16:31:11.144Z,31.20
2019-05-28T16:33:28.227Z,31.17
2019-05-28T16:35:58.726Z,31.24
2019-05-28T16:38:29.204Z,31.18
2019-05-28T16:40:59.716Z,30.95
2019-05-28T16:43:30.284Z,30.95
2019-05-28T16:46:00.772Z,30.89
2019-05-28T16:48:31.232Z,30.81
2019-05-28T16:51:01.742Z,30.74
2019-05-28T16:53:32.194Z,30.67
2019-05-28T16:56:02.708Z,30.66
2019-05-28T16:58:33.145Z,30.72
2019-05-28T17:01:21.327Z,30.69
2019-05-28T17:03:35.886Z,30.60
2019-05-28T17:06:06.348Z,30.35
2019-05-28T17:08:36.852Z,30.31
2019-05-28T17:11:07.489Z,30.25
2019-05-28T17:13:38.007Z,30.24
2019-05-28T17:16:08.497Z,30.19
2019-05-28T17:18:39.004Z,30.09
2019-05-28T17:21:09.594Z,29.92
2019-05-28T17:23:40.112Z,29.85
2019-05-28T17:26:10.668Z,29.81
2019-05-28T17:28:41.164Z,29.71
2019-05-28T17:31:11.694Z,29.71
2019-05-28T17:33:42.211Z,29.54
2019-05-28T17:36:12.677Z,29.54
2019-05-28T17:38:43.700Z,29.39
2019-05-28T17:41:14.161Z,29.39
2019-05-28T17:43:44.664Z,29.25
2019-05-28T17:46:15.168Z,29.15
2019-05-28T17:48:45.836Z,29.09
2019-05-28T17:51:16.290Z,29.00
2019-05-28T17:53:46.832Z,28.89
2019-05-28T17:56:17.294Z,28.81
2019-05-28T17:58:47.848Z,28.71
2019-05-28T18:01:18.301Z,28.61
2019-05-28T18:03:48.771Z,28.52
2019-05-28T18:06:19.244Z,28.43
2019-05-28T18:08:49.749Z,28.34
2019-05-28T18:11:20.223Z,28.26
2019-05-28T18:13:50.733Z,28.18
2019-05-28T18:16:21.210Z,28.02
2019-05-28T18:18:51.712Z,27.90
2019-05-28T18:21:22.168Z,27.81
2019-05-28T18:23:52.676Z,27.73
2019-05-28T18:26:23.121Z,27.67
2019-05-28T18:28:53.628Z,27.59
2019-05-28T18:31:24.135Z,26.80
2019-05-28T18:33:54.641Z,27.39
2019-05-28T18:36:25.164Z,27.32
2019-05-28T18:38:55.625Z,27.23
2019-05-28T18:41:26.124Z,27.14
2019-05-28T18:43:56.638Z,27.05
2019-05-28T18:46:27.133Z,26.97
2019-05-28T18:48:57.596Z,26.88
2019-05-28T18:51:28.119Z,26.83
2019-05-28T18:53:58.678Z,26.75
2019-05-28T18:56:29.292Z,26.67
2019-05-28T18:58:59.801Z,26.59
2019-05-28T19:01:30.307Z,26.52
2019-05-28T19:04:00.843Z,26.49
2019-05-28T19:06:31.303Z,26.39
2019-05-28T19:09:01.824Z,26.27
2019-05-28T19:11:37.971Z,26.26
2019-05-28T19:14:04.544Z,26.23
2019-05-28T19:16:35.184Z,26.21
2019-05-28T19:19:05.704Z,26.19
2019-05-28T19:21:36.329Z,26.12
2019-05-28T19:24:06.882Z,26.07
2019-05-28T19:26:37.436Z,26.05
2019-05-28T19:29:07.946Z,25.22
2019-05-28T19:31:38.660Z,25.89
2019-05-28T19:34:09.418Z,25.85
2019-05-28T19:36:40.167Z,25.80
2019-05-28T19:39:10.663Z,25.78
2019-05-28T19:41:53.609Z,25.73
2019-05-28T19:44:13.378Z,25.65
2019-05-28T19:46:43.951Z,25.52
2019-05-28T19:49:14.406Z,25.54
2019-05-28T19:51:44.915Z,25.07
2019-05-28T19:54:15.441Z,25.15
2019-05-28T19:56:45.893Z,24.94
2019-05-28T19:59:16.404Z,24.95
2019-05-28T20:01:46.856Z,24.86
2019-05-28T20:04:17.390Z,24.61
2019-05-28T20:06:47.838Z,24.57
2019-05-28T20:09:18.335Z,24.51
2019-05-28T20:11:48.847Z,24.49
2019-05-28T20:14:19.311Z,24.33
2019-05-28T20:16:49.852Z,24.18
2019-05-28T20:19:20.320Z,24.24
2019-05-28T20:21:53.454Z,24.01
2019-05-28T20:24:23.094Z,23.93
2019-05-28T20:26:53.945Z,23.79
2019-05-28T20:29:24.462Z,23.88
2019-05-28T20:31:55.004Z,23.96
2019-05-28T20:34:25.578Z,23.96
2019-05-28T20:36:56.043Z,23.91
2019-05-28T20:39:26.505Z,23.96
2019-05-28T20:41:57.004Z,23.93
2019-05-28T20:44:27.452Z,23.69
2019-05-28T20:46:58.004Z,23.48
2019-05-28T20:49:28.508Z,23.57
2019-05-28T20:51:59.008Z,23.35
2019-05-28T20:54:29.524Z,23.29
2019-05-28T20:56:59.992Z,23.15
2019-05-28T20:59:30.464Z,23.09
2019-05-28T21:02:00.982Z,22.98
2019-05-28T21:04:31.512Z,23.08
2019-05-28T21:07:01.962Z,23.03
2019-05-28T21:09:32.442Z,22.93
2019-05-28T21:12:02.932Z,22.82
2019-05-28T21:14:33.370Z,22.79
2019-05-28T21:17:03.971Z,22.92
2019-05-28T21:19:34.421Z,22.94
2019-05-28T21:22:04.919Z,22.95
2019-05-28T21:24:35.394Z,22.97
2019-05-28T21:27:05.935Z,22.96
2019-05-28T21:29:36.484Z,22.92
2019-05-28T21:32:06.926Z,22.88
2019-05-28T21:34:37.377Z,22.84
2019-05-28T21:37:07.884Z,22.82
2019-05-28T21:39:38.323Z,22.75
2019-05-28T21:42:08.838Z,22.62
2019-05-28T21:44:39.303Z,22.43
2019-05-28T21:47:09.881Z,22.33
2019-05-28T21:49:40.344Z,22.40
2019-05-28T21:52:10.953Z,22.38
2019-05-28T21:54:41.423Z,22.37
2019-05-28T21:57:11.877Z,22.35
2019-05-28T21:59:42.327Z,22.31
2019-05-28T22:02:13.717Z,22.02
2019-05-28T22:04:44.222Z,22.01
2019-05-28T22:07:14.680Z,22.08
2019-05-28T22:09:45.210Z,22.03
2019-05-28T22:12:15.646Z,22.03
2019-05-28T22:14:46.106Z,21.97
2019-05-28T22:17:16.588Z,21.98
2019-05-28T22:19:47.039Z,21.93
2019-05-28T22:22:17.571Z,21.87
2019-05-28T22:24:48.092Z,21.84
2019-05-28T22:27:18.553Z,21.83
2019-05-28T22:29:49.056Z,21.65
2019-05-28T22:32:19.571Z,21.77
2019-05-28T22:34:50.036Z,21.72
2019-05-28T22:37:20.533Z,21.72
2019-05-28T22:39:51.002Z,21.73
2019-05-28T22:42:21.491Z,21.74
2019-05-28T22:44:51.940Z,21.78
2019-05-28T22:47:22.516Z,21.51
2019-05-28T22:49:52.962Z,21.69
2019-05-28T22:52:23.454Z,21.78
2019-05-28T22:54:53.912Z,21.78
2019-05-28T22:57:24.464Z,21.83
2019-05-28T22:59:54.921Z,21.84
2019-05-28T23:02:25.416Z,21.82
2019-05-28T23:04:55.865Z,21.84
2019-05-28T23:07:26.352Z,21.79
2019-05-28T23:09:56.798Z,21.72
2019-05-28T23:12:27.322Z,21.79
2019-05-28T23:14:57.781Z,21.63
2019-05-28T23:17:28.290Z,21.41
2019-05-28T23:19:58.754Z,21.52
2019-05-28T23:22:29.199Z,21.59
2019-05-28T23:24:59.661Z,21.62
2019-05-28T23:27:30.157Z,21.62
2019-05-28T23:30:06.752Z,21.62
2019-05-28T23:32:32.819Z,21.64
2019-05-28T23:35:04.302Z,21.61
2019-05-28T23:37:34.892Z,21.56
2019-05-28T23:40:07.044Z,21.62
2019-05-28T23:42:37.687Z,21.44
2019-05-28T23:45:09.764Z,21.54
2019-05-28T23:47:40.446Z,21.36
2019-05-28T23:50:14.790Z,21.46
2019-05-28T23:52:43.407Z,21.12
2019-05-28T23:55:14.157Z,21.16
2019-05-28T23:57:44.739Z,21.11
